createdAt,value
2023-03-15T00:00:32.702Z,4.56
2023-03-15T00:03:23.705Z,4.66
2023-03-15T00:06:10.721Z,4.54
2023-03-15T00:08:57.511Z,4.44
2023-03-15T00:11:44.110Z,4.45
2023-03-15T00:14:31.895Z,4.43
2023-03-15T00:17:18.728Z,4.38
2023-03-15T00:20:07.630Z,4.17
2023-03-15T00:22:54.576Z,4.33
2023-03-15T00:25:45.460Z,4.29
2023-03-15T00:28:34.051Z,4.16
2023-03-15T00:31:24.102Z,4.17
2023-03-15T00:34:14.069Z,4.16
2023-03-15T00:37:00.895Z,3.93
2023-03-15T00:39:48.133Z,3.94
2023-03-15T00:42:35.080Z,4.02
2023-03-15T00:45:22.248Z,4.04
2023-03-15T00:48:09.284Z,4.02
2023-03-15T00:51:16.086Z,3.94
2023-03-15T00:54:07.087Z,4.06
2023-03-15T00:56:53.694Z,3.89
2023-03-15T00:59:40.525Z,3.99
2023-03-15T01:02:27.041Z,3.67
2023-03-15T01:05:14.399Z,3.89
2023-03-15T01:08:03.258Z,4.20
2023-03-15T01:10:50.969Z,4.25
2023-03-15T01:13:38.211Z,3.81
2023-03-15T01:16:25.132Z,4.19
2023-03-15T01:19:12.812Z,4.18
2023-03-15T01:22:00.844Z,4.23
2023-03-15T01:24:47.461Z,4.27
2023-03-15T01:27:34.392Z,4.25
2023-03-15T01:30:23.570Z,4.09
2023-03-15T01:33:10.467Z,3.76
2023-03-15T01:36:05.469Z,4.18
2023-03-15T01:38:55.239Z,4.15
2023-03-15T01:41:47.340Z,4.01
2023-03-15T01:45:28.469Z,4.13
2023-03-15T01:48:15.547Z,4.01
2023-03-15T01:51:14.396Z,4.14
2023-03-15T01:54:17.518Z,4.30
2023-03-15T01:57:08.686Z,4.23
2023-03-15T02:00:12.821Z,4.06
2023-03-15T02:03:04.066Z,4.20
2023-03-15T02:05:58.083Z,4.11
2023-03-15T02:09:09.460Z,3.62
2023-03-15T02:11:59.676Z,3.57
2023-03-15T02:14:46.470Z,3.99
2023-03-15T02:17:41.959Z,4.02
2023-03-15T02:20:45.406Z,3.91
2023-03-15T02:23:32.292Z,3.99
2023-03-15T02:26:25.999Z,3.77
2023-03-15T02:29:12.808Z,3.83
2023-03-15T02:32:00.443Z,3.92
2023-03-15T02:34:46.678Z,3.79
2023-03-15T02:37:33.312Z,3.91
2023-03-15T02:40:22.207Z,3.75
2023-03-15T02:43:16.742Z,3.75
2023-03-15T02:46:06.892Z,3.49
2023-03-15T02:48:55.999Z,3.75
2023-03-15T02:51:42.380Z,3.41
2023-03-15T02:54:29.175Z,3.82
2023-03-15T02:57:18.210Z,3.80
2023-03-15T03:00:14.342Z,3.87
2023-03-15T03:03:01.989Z,4.02
2023-03-15T03:05:48.835Z,3.98
2023-03-15T03:08:35.549Z,3.88
2023-03-15T03:11:22.372Z,3.74
2023-03-15T03:14:09.810Z,3.81
2023-03-15T03:16:56.790Z,3.75
2023-03-15T03:19:43.701Z,3.67
2023-03-15T03:22:30.987Z,3.70
2023-03-15T03:25:18.087Z,3.58
2023-03-15T03:28:06.425Z,3.67
2023-03-15T03:30:56.603Z,3.74
2023-03-15T03:33:43.423Z,3.68
2023-03-15T03:36:29.686Z,3.65
2023-03-15T03:39:16.742Z,3.62
2023-03-15T03:42:04.792Z,3.64
2023-03-15T03:44:51.840Z,3.45
2023-03-15T03:47:39.219Z,3.58
2023-03-15T03:50:26.830Z,3.53
2023-03-15T03:53:13.480Z,3.70
2023-03-15T03:56:04.214Z,3.39
2023-03-15T03:58:51.201Z,3.43
2023-03-15T04:01:58.550Z,3.78
2023-03-15T04:04:45.463Z,3.74
2023-03-15T04:07:39.017Z,3.68
2023-03-15T04:10:28.799Z,3.60
2023-03-15T04:13:15.705Z,3.41
2023-03-15T04:16:04.085Z,3.72
2023-03-15T04:19:01.963Z,3.50
2023-03-15T04:21:52.658Z,3.40
2023-03-15T04:25:03.275Z,3.38
2023-03-15T04:28:12.287Z,3.33
2023-03-15T04:31:10.824Z,3.54
2023-03-15T04:33:57.672Z,3.55
2023-03-15T04:37:03.189Z,3.21
2023-03-15T04:40:13.423Z,3.48
2023-03-15T04:43:13.219Z,3.13
2023-03-15T04:46:09.546Z,3.54
2023-03-15T04:49:25.953Z,3.32
2023-03-15T04:52:30.589Z,3.34
2023-03-15T04:55:17.706Z,3.25
2023-03-15T04:58:35.667Z,3.35
2023-03-15T05:01:31.861Z,3.44
2023-03-15T05:04:36.441Z,3.35
2023-03-15T05:07:52.500Z,3.35
2023-03-15T05:10:55.174Z,3.12
2023-03-15T05:14:05.442Z,3.21
2023-03-15T05:17:30.802Z,3.08
2023-03-15T05:20:20.021Z,3.31
2023-03-15T05:23:26.730Z,3.19
2023-03-15T05:26:31.465Z,3.59
2023-03-15T05:29:36.182Z,3.63
2023-03-15T05:32:45.016Z,3.72
2023-03-15T05:35:31.568Z,3.68
2023-03-15T05:38:57.743Z,3.59
2023-03-15T05:41:54.144Z,3.23
2023-03-15T05:44:51.511Z,3.63
2023-03-15T05:47:56.699Z,3.77
2023-03-15T05:50:54.363Z,3.70
2023-03-15T05:54:00.766Z,3.85
2023-03-15T05:57:04.955Z,3.81
2023-03-15T06:00:18.682Z,3.57
2023-03-15T06:03:11.243Z,3.57
2023-03-15T06:06:15.849Z,3.95
2023-03-15T06:09:02.795Z,3.92
2023-03-15T06:11:49.664Z,4.04
2023-03-15T06:14:36.579Z,4.11
2023-03-15T06:17:27.199Z,4.08
2023-03-15T06:20:14.810Z,4.09
2023-03-15T06:23:01.321Z,4.09
2023-03-15T06:26:08.087Z,4.14
2023-03-15T06:28:56.978Z,4.20
2023-03-15T06:31:45.144Z,3.94
2023-03-15T06:34:31.968Z,4.21
2023-03-15T06:37:29.041Z,4.17
2023-03-15T06:40:21.452Z,4.11
2023-03-15T06:43:18.407Z,4.17
2023-03-15T06:46:08.919Z,4.17
2023-03-15T06:48:56.138Z,4.18
2023-03-15T06:51:45.276Z,3.96
2023-03-15T06:54:32.367Z,4.39
2023-03-15T06:57:19.738Z,4.43
2023-03-15T07:00:11.433Z,3.97
2023-03-15T07:02:58.270Z,4.11
2023-03-15T07:05:46.852Z,4.26
2023-03-15T07:08:33.443Z,4.10
2023-03-15T07:11:21.117Z,4.36
2023-03-15T07:14:11.934Z,4.30
2023-03-15T07:17:01.021Z,4.12
2023-03-15T07:19:56.224Z,4.52
2023-03-15T07:22:46.340Z,4.41
2023-03-15T07:25:37.597Z,4.83
2023-03-15T07:28:29.093Z,4.82
2023-03-15T07:31:15.907Z,4.63
2023-03-15T07:34:03.137Z,4.90
2023-03-15T07:36:52.161Z,5.02
2023-03-15T07:39:38.859Z,4.96
2023-03-15T07:42:25.270Z,4.82
2023-03-15T07:45:16.012Z,5.00
2023-03-15T07:48:02.236Z,4.72
2023-03-15T07:50:51.941Z,5.09
2023-03-15T07:53:38.086Z,5.03
2023-03-15T07:56:27.227Z,5.10
2023-03-15T07:59:15.207Z,5.15
2023-03-15T08:02:05.776Z,5.11
2023-03-15T08:04:52.153Z,5.00
2023-03-15T08:07:39.093Z,5.06
2023-03-15T08:10:25.306Z,4.83
2023-03-15T08:13:13.059Z,4.89
2023-03-15T08:15:59.664Z,4.99
2023-03-15T08:18:46.837Z,4.98
2023-03-15T08:21:33.923Z,4.97
2023-03-15T08:24:23.828Z,5.00
2023-03-15T08:27:11.282Z,5.46
2023-03-15T08:29:58.123Z,5.24
2023-03-15T08:32:46.413Z,5.66
2023-03-15T08:35:34.466Z,5.74
2023-03-15T08:38:20.986Z,5.74
2023-03-15T08:41:08.341Z,5.94
2023-03-15T08:43:55.179Z,5.96
2023-03-15T08:46:44.200Z,6.13
2023-03-15T08:49:30.500Z,6.14
2023-03-15T08:52:18.208Z,6.16
2023-03-15T08:55:05.685Z,6.29
2023-03-15T08:57:52.787Z,6.24
2023-03-15T09:00:39.367Z,6.22
2023-03-15T09:03:26.335Z,6.43
2023-03-15T09:06:13.785Z,6.45
2023-03-15T09:09:00.753Z,6.29
2023-03-15T09:11:47.491Z,6.05
2023-03-15T09:14:34.185Z,6.18
2023-03-15T09:17:23.188Z,6.27
2023-03-15T09:20:16.438Z,6.29
2023-03-15T09:23:20.844Z,6.64
2023-03-15T09:26:11.598Z,6.71
2023-03-15T09:29:00.943Z,6.75
2023-03-15T09:31:47.879Z,6.74
2023-03-15T09:34:41.690Z,6.48
2023-03-15T09:37:31.967Z,6.61
2023-03-15T09:40:30.395Z,6.76
2023-03-15T09:43:42.005Z,6.79
2023-03-15T09:46:42.089Z,6.89
2023-03-15T09:49:32.475Z,6.91
2023-03-15T09:52:36.267Z,6.82
2023-03-15T09:55:25.378Z,6.95
2023-03-15T09:58:44.658Z,6.96
2023-03-15T10:01:40.998Z,6.79
2023-03-15T10:04:30.810Z,6.98
2023-03-15T10:07:22.880Z,6.93
2023-03-15T10:10:23.315Z,6.91
2023-03-15T10:13:24.772Z,6.95
2023-03-15T10:16:26.218Z,6.90
2023-03-15T10:19:30.398Z,6.93
2023-03-15T10:22:30.354Z,6.99
2023-03-15T10:25:32.638Z,7.17
2023-03-15T10:28:28.270Z,7.36
2023-03-15T10:31:36.572Z,7.00
2023-03-15T10:34:30.574Z,7.37
2023-03-15T10:37:20.248Z,7.22
2023-03-15T10:40:13.865Z,7.21
2023-03-15T10:43:00.936Z,7.27
2023-03-15T10:46:00.941Z,7.22
2023-03-15T10:49:01.095Z,7.07
2023-03-15T10:51:49.068Z,7.04
2023-03-15T10:54:42.048Z,6.85
2023-03-15T10:57:52.148Z,6.87
2023-03-15T11:00:41.775Z,6.61
2023-03-15T11:03:28.723Z,6.73
2023-03-15T11:06:21.842Z,6.67
2023-03-15T11:09:14.711Z,6.53
2023-03-15T11:12:04.167Z,6.26
2023-03-15T11:14:53.369Z,6.26
2023-03-15T11:17:47.574Z,6.23
2023-03-15T11:20:39.747Z,6.30
2023-03-15T11:23:35.557Z,6.31
2023-03-15T11:26:32.483Z,6.36
2023-03-15T11:29:31.974Z,6.29
2023-03-15T11:32:18.477Z,6.46
2023-03-15T11:35:06.527Z,6.35
2023-03-15T11:38:14.643Z,6.52
2023-03-15T11:41:37.534Z,6.65
2023-03-15T11:44:44.492Z,6.73
2023-03-15T11:47:52.739Z,6.74
2023-03-15T11:50:40.343Z,6.76
2023-03-15T11:53:33.350Z,6.79
2023-03-15T11:56:30.761Z,6.89
2023-03-15T11:59:40.648Z,7.05
2023-03-15T12:02:27.342Z,7.08
2023-03-15T12:05:47.686Z,7.09
2023-03-15T12:08:55.044Z,7.05
2023-03-15T12:11:43.129Z,7.06
2023-03-15T12:14:32.267Z,6.80
2023-03-15T12:17:31.631Z,7.02
2023-03-15T12:20:43.119Z,6.76
2023-03-15T12:23:38.948Z,6.95
2023-03-15T12:26:54.001Z,6.90
2023-03-15T12:29:45.760Z,6.68
2023-03-15T12:32:44.522Z,6.68
2023-03-15T12:35:47.540Z,6.77
2023-03-15T12:38:37.731Z,6.75
2023-03-15T12:41:49.593Z,6.69
2023-03-15T12:44:49.222Z,6.68
2023-03-15T12:47:51.707Z,6.95
2023-03-15T12:50:51.484Z,6.84
2023-03-15T12:53:48.252Z,7.02
2023-03-15T12:56:42.913Z,6.80
2023-03-15T12:59:59.181Z,6.47
2023-03-15T13:02:50.882Z,5.96
2023-03-15T13:06:09.443Z,6.45
2023-03-15T13:08:58.846Z,6.54
2023-03-15T13:12:15.538Z,6.46
2023-03-15T13:15:19.961Z,6.50
2023-03-15T13:18:18.231Z,6.62
2023-03-15T13:21:21.265Z,6.73
2023-03-15T13:24:34.554Z,6.77
2023-03-15T13:27:28.512Z,6.89
2023-03-15T13:30:40.106Z,6.90
2023-03-15T13:33:30.815Z,6.95
2023-03-15T13:36:23.762Z,6.57
2023-03-15T13:39:18.571Z,6.76
2023-03-15T13:42:24.696Z,6.50
2023-03-15T13:45:21.757Z,6.19
2023-03-15T13:48:13.469Z,5.98
2023-03-15T13:51:08.409Z,5.72
2023-03-15T13:53:59.700Z,5.67
2023-03-15T13:56:58.193Z,5.75
2023-03-15T13:59:54.484Z,5.74
2023-03-15T14:02:46.483Z,5.79
2023-03-15T14:05:44.039Z,5.54
2023-03-15T14:08:40.490Z,5.89
2023-03-15T14:11:40.484Z,5.79
2023-03-15T14:14:29.668Z,5.77
2023-03-15T14:17:31.153Z,5.64
2023-03-15T14:20:19.494Z,5.71
2023-03-15T14:23:10.722Z,5.76
2023-03-15T14:26:18.686Z,5.82
2023-03-15T14:29:21.770Z,5.85
2023-03-15T14:32:42.335Z,5.84
2023-03-15T14:35:43.597Z,5.98
2023-03-15T14:38:38.656Z,6.11
2023-03-15T14:41:31.777Z,6.12
2023-03-15T14:44:22.315Z,5.86
2023-03-15T14:47:22.566Z,5.96
2023-03-15T14:50:31.093Z,6.02
2023-03-15T14:53:19.775Z,5.98
2023-03-15T14:56:06.669Z,5.91
2023-03-15T14:58:54.505Z,5.96
2023-03-15T15:01:46.834Z,5.82
2023-03-15T15:04:34.819Z,5.91
2023-03-15T15:07:24.137Z,5.96
2023-03-15T15:10:11.253Z,5.87
2023-03-15T15:13:05.916Z,5.88
2023-03-15T15:15:57.259Z,5.76
2023-03-15T15:18:43.951Z,5.73
2023-03-15T15:21:33.864Z,5.84
2023-03-15T15:24:24.552Z,5.87
2023-03-15T15:27:14.220Z,5.99
2023-03-15T15:30:00.925Z,5.83
2023-03-15T15:33:12.545Z,5.84
2023-03-15T15:36:01.199Z,5.86
2023-03-15T15:38:48.671Z,5.84
2023-03-15T15:41:38.785Z,5.46
2023-03-15T15:44:29.587Z,5.79
2023-03-15T15:47:23.254Z,5.85
2023-03-15T15:50:20.453Z,5.84
2023-03-15T15:53:16.678Z,5.74
2023-03-15T15:56:05.005Z,5.80
2023-03-15T15:58:51.976Z,5.74
2023-03-15T16:01:49.248Z,5.56
2023-03-15T16:04:43.668Z,5.61
2023-03-15T16:07:32.400Z,5.91
2023-03-15T16:10:31.280Z,5.81
2023-03-15T16:13:18.391Z,5.80
2023-03-15T16:16:05.392Z,5.71
2023-03-15T16:18:52.278Z,5.43
2023-03-15T16:21:52.069Z,5.69
2023-03-15T16:24:44.396Z,5.75
2023-03-15T16:27:53.222Z,5.58
2023-03-15T16:30:46.694Z,5.51
2023-03-15T16:33:34.875Z,5.49
2023-03-15T16:36:22.719Z,5.43
2023-03-15T16:39:14.571Z,5.39
2023-03-15T16:42:05.849Z,5.33
2023-03-15T16:44:58.933Z,5.16
2023-03-15T16:47:48.667Z,5.07
2023-03-15T16:50:37.504Z,4.84
2023-03-15T16:53:25.471Z,4.97
2023-03-15T16:56:24.635Z,5.00
2023-03-15T16:59:14.567Z,4.87
2023-03-15T17:02:01.817Z,4.81
2023-03-15T17:04:51.326Z,4.72
2023-03-15T17:07:42.654Z,4.68
2023-03-15T17:10:33.274Z,4.49
2023-03-15T17:13:27.506Z,4.49
2023-03-15T17:16:16.666Z,4.16
2023-03-15T17:19:11.690Z,4.27
2023-03-15T17:21:59.220Z,4.36
2023-03-15T17:24:47.843Z,4.36
2023-03-15T17:27:42.545Z,4.38
2023-03-15T17:30:34.503Z,4.13
2023-03-15T17:33:36.599Z,4.35
2023-03-15T17:36:25.147Z,3.81
2023-03-15T17:39:17.507Z,4.14
2023-03-15T17:42:05.425Z,4.14
2023-03-15T17:44:51.945Z,4.15
2023-03-15T17:47:39.046Z,3.91
2023-03-15T17:50:32.537Z,3.56
2023-03-15T17:53:34.436Z,3.93
2023-03-15T17:56:39.736Z,4.01
2023-03-15T17:59:39.562Z,3.97
2023-03-15T18:02:43.399Z,4.04
2023-03-15T18:05:39.732Z,3.86
2023-03-15T18:08:31.487Z,4.18
2023-03-15T18:11:32.277Z,4.18
2023-03-15T18:14:21.032Z,4.13
2023-03-15T18:17:11.977Z,4.08
2023-03-15T18:19:59.568Z,4.09
2023-03-15T18:22:48.992Z,4.04
2023-03-15T18:25:36.222Z,4.03
2023-03-15T18:28:24.289Z,3.99
2023-03-15T18:31:15.421Z,3.94
2023-03-15T18:34:03.978Z,3.82
2023-03-15T18:36:54.463Z,3.52
2023-03-15T18:39:42.650Z,3.90
2023-03-15T18:42:31.909Z,3.60
2023-03-15T18:45:32.023Z,3.71
2023-03-15T18:48:22.861Z,3.86
2023-03-15T18:51:17.832Z,3.86
2023-03-15T18:54:07.517Z,3.86
2023-03-15T18:56:54.842Z,3.77
2023-03-15T18:59:46.147Z,3.63
2023-03-15T19:02:35.673Z,3.68
2023-03-15T19:05:22.324Z,3.85
2023-03-15T19:08:14.617Z,3.91
2023-03-15T19:11:02.491Z,3.94
2023-03-15T19:13:52.369Z,3.76
2023-03-15T19:16:39.062Z,3.98
2023-03-15T19:19:26.031Z,3.71
2023-03-15T19:22:13.625Z,3.42
2023-03-15T19:25:02.539Z,3.55
2023-03-15T19:27:49.248Z,3.52
2023-03-15T19:30:39.619Z,3.58
2023-03-15T19:33:26.321Z,3.11
2023-03-15T19:36:13.258Z,3.05
2023-03-15T19:39:00.207Z,3.05
2023-03-15T19:41:47.248Z,3.11
2023-03-15T19:44:36.272Z,3.31
2023-03-15T19:47:32.033Z,3.49
2023-03-15T19:50:20.016Z,3.51
2023-03-15T19:53:09.244Z,3.45
2023-03-15T19:55:55.891Z,3.25
2023-03-15T19:58:42.908Z,3.31
2023-03-15T20:01:32.610Z,3.21
2023-03-15T20:04:25.023Z,3.48
2023-03-15T20:07:13.259Z,3.58
2023-03-15T20:10:02.258Z,3.48
2023-03-15T20:12:48.974Z,3.50
2023-03-15T20:15:35.802Z,3.46
2023-03-15T20:18:24.206Z,3.18
2023-03-15T20:21:11.168Z,3.60
2023-03-15T20:23:57.812Z,3.38
2023-03-15T20:26:51.562Z,3.00
2023-03-15T20:29:38.833Z,3.25
2023-03-15T20:32:26.516Z,3.29
2023-03-15T20:35:16.153Z,3.27
2023-03-15T20:38:08.567Z,3.48
2023-03-15T20:40:59.815Z,3.49
2023-03-15T20:43:47.874Z,3.29
2023-03-15T20:46:37.385Z,3.47
2023-03-15T20:49:26.961Z,3.26
2023-03-15T20:52:15.256Z,3.52
2023-03-15T20:55:03.685Z,3.28
2023-03-15T20:57:58.896Z,3.43
2023-03-15T21:00:45.960Z,3.41
2023-03-15T21:03:35.755Z,3.20
2023-03-15T21:06:22.844Z,3.13
2023-03-15T21:09:11.396Z,3.12
2023-03-15T21:11:59.981Z,2.98
2023-03-15T21:14:46.800Z,2.89
2023-03-15T21:17:33.799Z,2.73
2023-03-15T21:20:20.113Z,2.70
2023-03-15T21:23:07.086Z,2.61
2023-03-15T21:25:58.799Z,2.39
2023-03-15T21:28:46.822Z,2.43
2023-03-15T21:31:33.875Z,2.50
2023-03-15T21:34:24.955Z,2.37
2023-03-15T21:37:11.259Z,2.41
2023-03-15T21:39:58.130Z,2.41
2023-03-15T21:42:47.979Z,2.25
2023-03-15T21:45:34.918Z,2.08
2023-03-15T21:48:21.675Z,2.04
2023-03-15T21:51:08.668Z,2.04
2023-03-15T21:53:58.453Z,2.21
2023-03-15T21:56:45.926Z,1.73
2023-03-15T21:59:38.003Z,2.15
2023-03-15T22:02:25.052Z,2.25
2023-03-15T22:05:13.480Z,2.13
2023-03-15T22:08:01.006Z,2.22
2023-03-15T22:10:47.761Z,2.40
2023-03-15T22:13:35.910Z,2.54
2023-03-15T22:16:31.089Z,2.64
2023-03-15T22:19:22.648Z,2.58
2023-03-15T22:22:09.045Z,2.17
2023-03-15T22:24:55.567Z,2.45
2023-03-15T22:27:45.170Z,2.57
2023-03-15T22:30:32.390Z,2.52
2023-03-15T22:33:25.794Z,2.52
2023-03-15T22:36:13.222Z,2.53
2023-03-15T22:39:01.440Z,2.51
2023-03-15T22:41:48.375Z,2.40
2023-03-15T22:44:38.572Z,2.29
2023-03-15T22:47:25.476Z,1.91
2023-03-15T22:50:15.678Z,1.91
2023-03-15T22:53:05.283Z,1.84
2023-03-15T22:55:51.447Z,1.74
2023-03-15T22:58:38.487Z,2.06
2023-03-15T23:01:26.237Z,2.31
2023-03-15T23:04:15.845Z,2.42
2023-03-15T23:07:03.729Z,2.26
2023-03-15T23:09:53.941Z,2.07
2023-03-15T23:12:43.660Z,2.10
2023-03-15T23:15:31.306Z,2.04
2023-03-15T23:18:20.573Z,1.82
2023-03-15T23:21:08.937Z,1.87
2023-03-15T23:23:59.861Z,1.94
2023-03-15T23:26:47.067Z,1.86
2023-03-15T23:29:47.067Z,2.03
2023-03-15T23:32:40.740Z,2.10
2023-03-15T23:35:37.299Z,2.45
2023-03-15T23:38:25.384Z,2.64
2023-03-15T23:41:20.584Z,2.77
2023-03-15T23:44:11.103Z,2.68
2023-03-15T23:47:03.011Z,2.39
2023-03-15T23:49:53.349Z,2.33
2023-03-15T23:52:47.380Z,2.09
2023-03-15T23:55:36.662Z,1.78
2023-03-15T23:58:28.399Z,1.94
